Time;durP1;ratioP1;P1;durP2;ratioP2;P2;SDS_P1;SDS_P2;PMS_P1;PMS_P2;Temp;Humidity;BMP_temperature;BMP_pressure;BME280_temperature;BME280_humidity;BME280_pressure;Samples;Min_cycle;Max_cycle;Signal;HPM_P1;HPM_P2
2021/08/09 00:00:47;;;;;;;3.40;3.10;;;;;;;23.21;68.49;101117.88;4984426;28;102062;-88
2021/08/09 00:03:14;;;;;;;3.78;3.30;;;;;;;23.20;68.51;101119.06;4981682;28;102536;-88
2021/08/09 00:06:02;;;;;;;4.05;3.50;;;;;;;23.21;68.48;101111.53;4988695;28;101827;-88
2021/08/09 00:08:31;;;;;;;4.45;3.70;;;;;;;23.20;68.60;101109.91;4979726;28;101929;-88
2021/08/09 00:10:58;;;;;;;3.85;3.17;;;;;;;23.20;68.67;101121.03;4984885;28;102044;-88
2021/08/09 00:13:28;;;;;;;4.80;3.63;;;;;;;23.20;68.43;101113.50;4979916;28;102898;-88
2021/08/09 00:15:57;;;;;;;4.00;3.30;;;;;;;23.19;68.47;101114.66;4968800;28;101864;-88
2021/08/09 00:18:25;;;;;;;3.33;3.03;;;;;;;23.19;68.49;101106.34;4963714;28;101658;-88
2021/08/09 00:20:52;;;;;;;4.20;3.05;;;;;;;23.19;68.44;101114.66;4965059;28;101999;-88
2021/08/09 00:23:25;;;;;;;4.13;3.60;;;;;;;23.20;68.60;101109.91;4959446;28;102704;-88
2021/08/09 00:25:52;;;;;;;4.85;3.72;;;;;;;23.19;68.60;101106.34;4963903;28;101840;-88
2021/08/09 00:28:20;;;;;;;3.83;3.40;;;;;;;23.20;68.71;101109.91;4963751;28;101554;-87
2021/08/09 00:30:59;;;;;;;4.25;3.25;;;;;;;23.19;68.69;101114.66;4961806;28;101835;-87
2021/08/09 00:33:27;;;;;;;4.18;3.78;;;;;;;23.19;68.87;101106.34;4963374;28;102779;-88
2021/08/09 00:35:53;;;;;;;3.75;3.13;;;;;;;23.18;68.63;101107.47;4984037;28;101748;-88
2021/08/09 00:38:20;;;;;;;3.88;3.20;;;;;;;23.19;68.60;101109.09;4982926;28;102197;-88
2021/08/09 00:40:54;;;;;;;4.22;3.00;;;;;;;23.18;68.82;101101.09;4982377;28;102030;-87
2021/08/09 00:43:25;;;;;;;4.00;3.45;;;;;;;23.18;68.54;101107.47;4965774;28;102734;-89
2021/08/09 00:45:52;;;;;;;;;;;;;;;23.18;68.75;101112.22;4981789;28;102079;-88
2021/08/09 00:48:19;;;;;;;3.40;2.95;;;;;;;23.17;68.83;101105.84;4983725;28;101850;-88
2021/08/09 00:50:45;;;;;;;4.72;3.42;;;;;;;23.18;68.55;101107.47;4984630;28;102034;-88
2021/08/09 00:53:13;;;;;;;3.47;3.17;;;;;;;23.18;68.61;101106.66;4983095;28;102727;-88
2021/08/09 00:55:42;;;;;;;3.53;3.20;;;;;;;23.18;68.57;101107.47;4983797;28;101939;-88
2021/08/09 00:58:11;;;;;;;3.53;3.10;;;;;;;23.18;68.65;101106.66;4983673;28;101974;-88
2021/08/09 01:00:37;;;;;;;;;;;;;;;23.17;68.57;101111.41;4985474;28;102072;-88
2021/08/09 01:03:05;;;;;;;3.42;3.13;;;;;;;23.17;68.61;101111.41;4983683;28;102716;-88
2021/08/09 01:05:32;;;;;;;3.60;3.30;;;;;;;23.17;68.85;101105.84;4984230;28;101855;-88
2021/08/09 01:08:08;;;;;;;4.10;3.50;;;;;;;23.17;68.84;101116.97;4983507;28;101768;-88
2021/08/09 01:10:44;;;;;;;5.25;3.33;;;;;;;23.17;68.71;101111.41;4982090;28;101703;-88
2021/08/09 01:13:20;;;;;;;3.75;3.08;;;;;;;23.17;68.86;101105.06;4980517;28;102763;-87
2021/08/09 01:15:54;;;;;;;3.50;3.20;;;;;;;23.17;68.66;101099.50;4981629;28;101691;-88
2021/08/09 01:18:23;;;;;;;3.88;3.53;;;;;;;23.16;68.84;101097.88;4980230;28;101659;-88
2021/08/09 01:20:53;;;;;;;4.65;3.60;;;;;;;23.16;68.72;101104.25;4984617;28;102016;-88
2021/08/09 01:23:33;;;;;;;3.80;3.47;;;;;;;23.15;68.75;101099.84;4979813;28;102776;-88
2021/08/09 01:26:03;;;;;;;4.43;3.22;;;;;;;23.16;68.73;101109.81;4983630;28;101966;-88
2021/08/09 01:28:33;;;;;;;3.28;2.92;;;;;;;23.16;68.83;101104.25;4980019;28;101754;-88
2021/08/09 01:31:01;;;;;;;3.33;3.03;;;;;;;23.15;68.95;101102.63;4984412;28;101917;-88
2021/08/09 01:33:31;;;;;;;3.75;3.17;;;;;;;23.16;68.68;101086.78;4982548;28;102831;-88
2021/08/09 01:35:59;;;;;;;3.35;3.08;;;;;;;23.14;68.86;101095.44;4986327;28;101691;-88
2021/08/09 01:38:26;;;;;;;3.60;3.17;;;;;;;23.14;68.78;101094.63;4985334;28;101849;-88
2021/08/09 01:40:57;;;;;;;3.60;3.25;;;;;;;23.15;68.59;101097.09;4987209;28;102049;-88
2021/08/09 01:43:24;;;;;;;3.55;3.00;;;;;;;23.14;68.93;101095.44;4997109;28;102766;-88
2021/08/09 01:45:56;;;;;;;3.88;3.50;;;;;;;23.14;68.68;101101.00;5006002;28;102164;-88
2021/08/09 01:48:24;;;;;;;3.03;2.70;;;;;;;23.14;68.85;101098.22;4991770;28;101849;-89
2021/08/09 01:50:52;;;;;;;4.10;3.20;;;;;;;23.14;68.81;101101.00;4987253;28;102182;-88
2021/08/09 01:53:19;;;;;;;3.45;2.90;;;;;;;23.14;68.85;101101.00;4982012;28;102757;-88
2021/08/09 01:55:46;;;;;;;3.35;2.88;;;;;;;23.14;69.02;101100.19;4985455;28;101960;-88
2021/08/09 01:58:13;;;;;;;3.40;3.08;;;;;;;23.15;68.89;101107.34;4986207;28;101916;-88
2021/08/09 02:00:41;;;;;;;3.28;2.97;;;;;;;23.13;69.07;101104.94;4985682;28;102146;-89
2021/08/09 02:03:09;;;;;;;4.22;3.13;;;;;;;23.13;68.86;101098.59;4985678;28;102846;-89
2021/08/09 02:05:36;;;;;;;3.77;3.47;;;;;;;23.13;68.89;101093.03;4986157;28;101721;-88
2021/08/09 02:08:02;;;;;;;3.65;3.08;;;;;;;23.13;68.90;101093.03;4985540;28;101550;-88
2021/08/09 02:10:30;;;;;;;3.05;2.75;;;;;;;23.13;69.09;101095.81;4986877;28;102035;-88
2021/08/09 02:13:03;;;;;;;3.30;3.00;;;;;;;23.13;69.19;101098.59;4985344;28;102753;-88
2021/08/09 02:15:42;;;;;;;3.55;3.10;;;;;;;23.13;68.93;101093.03;4982818;28;101816;-88
2021/08/09 02:18:21;;;;;;;3.20;2.90;;;;;;;23.12;68.93;101102.53;4981358;28;101526;-88
2021/08/09 02:20:49;;;;;;;3.65;3.00;;;;;;;23.12;68.93;101097.78;4983787;28;101885;-88
2021/08/09 02:23:20;;;;;;;3.92;3.10;;;;;;;23.12;68.93;101102.53;4985368;28;102721;-88
2021/08/09 02:25:49;;;;;;;3.95;3.35;;;;;;;23.12;69.07;101099.75;4981940;28;101575;-88
2021/08/09 02:28:19;;;;;;;3.50;3.20;;;;;;;23.11;68.81;101096.13;4985374;28;101872;-88
2021/08/09 02:30:50;;;;;;;3.28;2.97;;;;;;;23.11;69.03;101095.31;4985262;28;102175;-88
2021/08/09 02:33:18;;;;;;;3.20;2.90;;;;;;;23.12;69.02;101103.31;4982138;28;102723;-88
2021/08/09 02:35:45;;;;;;;;;;;;;;;23.11;69.29;101101.69;4983058;28;101542;-88
2021/08/09 02:38:13;;;;;;;5.18;3.47;;;;;;;23.12;68.97;101097.78;4982553;28;101597;-88
2021/08/09 02:40:41;;;;;;;3.20;2.90;;;;;;;23.11;68.82;101098.09;4986576;28;101629;-88
2021/08/09 02:43:08;;;;;;;6.25;3.20;;;;;;;23.10;68.84;101094.53;4983852;28;102757;-88
2021/08/09 02:45:36;;;;;;;3.20;2.90;;;;;;;23.10;69.12;101094.53;4984442;28;101514;-88
2021/08/09 02:48:03;;;;;;;3.95;2.70;;;;;;;23.10;68.89;101094.53;4985330;28;101546;-88
2021/08/09 02:50:32;;;;;;;3.30;3.00;;;;;;;23.10;68.93;101097.28;4986351;28;102131;-88
2021/08/09 02:53:00;;;;;;;4.63;3.15;;;;;;;23.10;69.05;101091.75;4983196;28;102723;-87
2021/08/09 02:55:27;;;;;;;2.95;2.63;;;;;;;23.10;69.17;101096.50;4985406;28;101593;-87
2021/08/09 02:57:54;;;;;;;3.60;3.30;;;;;;;23.10;69.31;101100.06;4985009;28;101665;-88
2021/08/09 03:00:21;;;;;;;3.35;3.05;;;;;;;23.09;69.20;101104.00;4984969;28;101984;-88
2021/08/09 03:02:48;;;;;;;2.75;2.53;;;;;;;23.08;69.02;101102.41;4984361;28;102457;-88
2021/08/09 03:05:18;;;;;;;3.05;2.80;;;;;;;23.10;69.04;101099.28;4985578;28;101594;-88
2021/08/09 03:07:47;;;;;;;3.03;2.80;;;;;;;23.09;68.92;101098.47;4984929;28;101655;-88
2021/08/09 03:10:15;;;;;;;4.30;3.08;;;;;;;23.09;68.78;101098.47;4981896;28;101612;-88
2021/08/09 03:12:45;;;;;;;3.30;2.80;;;;;;;23.08;68.95;101102.41;4979871;28;102875;-88
2021/08/09 03:15:12;;;;;;;3.38;3.08;;;;;;;23.09;68.83;101106.78;4985160;28;101855;-88
2021/08/09 03:17:39;;;;;;;3.55;3.05;;;;;;;23.08;69.02;101107.97;4984388;28;101826;-86
2021/08/09 03:20:07;;;;;;;3.20;2.97;;;;;;;23.08;69.03;101096.84;4985354;28;102028;-87
2021/08/09 03:22:33;;;;;;;3.33;2.88;;;;;;;23.07;69.05;101100.75;4983366;28;102670;-88
2021/08/09 03:25:01;;;;;;;4.72;2.90;;;;;;;23.09;68.95;101114.31;4979471;28;101966;-88
2021/08/09 03:27:28;;;;;;;4.13;3.40;;;;;;;23.07;69.12;101106.31;4980147;28;102023;-88
2021/08/09 03:29:54;;;;;;;3.78;3.15;;;;;;;23.07;69.12;101114.63;4981119;28;102067;-88
2021/08/09 03:32:22;;;;;;;6.40;3.40;;;;;;;23.08;69.16;101098.78;4980995;28;102753;-88
2021/08/09 03:34:48;;;;;;;3.20;2.90;;;;;;;23.08;69.32;101107.97;4992360;28;102103;-88
2021/08/09 03:37:15;;;;;;;3.50;3.20;;;;;;;23.07;69.10;101111.88;4984963;28;102327;-88
2021/08/09 03:39:41;;;;;;;4.07;2.90;;;;;;;23.07;69.17;101116.63;4982516;28;102135;-88
2021/08/09 03:42:09;;;;;;;3.13;2.72;;;;;;;23.08;69.23;101112.66;4980915;28;102818;-88
2021/08/09 03:44:36;;;;;;;3.22;2.78;;;;;;;23.07;69.26;101111.88;4981117;28;102181;-88
2021/08/09 03:47:03;;;;;;;3.50;3.20;;;;;;;23.07;69.31;101111.06;4982108;28;102069;-88
2021/08/09 03:49:30;;;;;;;3.97;3.08;;;;;;;23.07;69.25;101116.63;4981424;28;102110;-88
2021/08/09 03:51:56;;;;;;;3.20;2.75;;;;;;;23.06;69.21;101109.44;4980950;28;102716;-88
2021/08/09 03:54:23;;;;;;;3.30;3.00;;;;;;;23.07;69.15;101117.41;4982038;28;102130;-88
2021/08/09 03:56:49;;;;;;;3.67;3.30;;;;;;;23.06;69.14;101115.81;4978762;28;102103;-88
2021/08/09 03:59:17;;;;;;;4.32;3.25;;;;;;;23.07;69.32;101128.53;4990458;28;102023;-88
2021/08/09 04:01:47;;;;;;;3.50;3.20;;;;;;;23.07;69.27;101124.94;4996387;28;102086;-88
2021/08/09 04:04:14;;;;;;;3.30;3.00;;;;;;;23.06;69.25;101126.91;4980178;28;102767;-88
2021/08/09 04:06:40;;;;;;;4.13;3.15;;;;;;;23.07;69.27;101125.75;4980812;28;102062;-89
2021/08/09 04:09:08;;;;;;;3.80;3.50;;;;;;;23.05;69.22;101125.31;4979145;28;102231;-88
2021/08/09 04:11:35;;;;;;;3.78;3.38;;;;;;;23.06;69.26;101126.09;4980432;28;102777;-88
2021/08/09 04:14:02;;;;;;;3.38;3.08;;;;;;;23.05;69.35;101130.84;4979077;28;102081;-88
2021/08/09 04:16:31;;;;;;;3.60;3.30;;;;;;;23.06;69.35;101131.66;4980809;28;102207;-88
2021/08/09 04:18:58;;;;;;;3.97;3.63;;;;;;;23.06;69.49;101138.00;4982660;28;102220;-88
2021/08/09 04:21:25;;;;;;;3.67;3.38;;;;;;;23.06;69.45;101138.00;4980750;28;102766;-88
2021/08/09 04:23:52;;;;;;;3.90;3.47;;;;;;;23.05;69.48;101139.19;4978431;28;102007;-88
2021/08/09 04:26:20;;;;;;;4.20;3.15;;;;;;;23.05;69.49;101141.97;4976715;28;102105;-88
2021/08/09 04:28:48;;;;;;;4.22;3.30;;;;;;;23.06;69.55;101143.56;4978023;28;102392;-88
2021/08/09 04:31:15;;;;;;;3.45;3.15;;;;;;;23.06;69.38;101143.56;4980397;28;102769;-88
2021/08/09 04:33:45;;;;;;;3.28;3.08;;;;;;;23.07;69.45;101144.38;4978442;28;102146;-88
2021/08/09 04:36:11;;;;;;;3.53;3.15;;;;;;;23.06;69.63;101163.00;4974713;28;102231;-88
2021/08/09 04:38:39;;;;;;;3.28;2.97;;;;;;;23.06;69.44;101160.22;4976133;28;102165;-88
2021/08/09 04:41:07;;;;;;;3.28;3.00;;;;;;;23.07;69.66;101161.03;4978036;28;102693;-88
2021/08/09 04:43:35;;;;;;;3.42;3.13;;;;;;;23.07;69.67;101152.69;4972070;28;101988;-88
2021/08/09 04:46:02;;;;;;;3.28;2.97;;;;;;;23.06;69.54;101154.66;4982664;28;102045;-88
2021/08/09 04:48:28;;;;;;;3.50;3.20;;;;;;;23.06;69.80;101153.88;4984780;28;102178;-87
2021/08/09 04:50:57;;;;;;;3.72;3.35;;;;;;;23.07;69.74;101161.84;4976728;28;102822;-87
2021/08/09 04:53:24;;;;;;;4.28;3.10;;;;;;;23.07;69.67;101161.84;4973948;28;102134;-87
2021/08/09 04:55:57;;;;;;;3.60;2.88;;;;;;;23.07;69.85;101155.47;4977447;28;102134;-88
2021/08/09 04:58:24;;;;;;;3.22;2.92;;;;;;;23.08;69.84;101157.94;4990354;28;102124;-88
2021/08/09 05:00:51;;;;;;;3.50;3.20;;;;;;;23.07;69.88;101172.94;4971251;28;102673;-88
2021/08/09 05:03:18;;;;;;;3.38;3.08;;;;;;;23.09;69.79;101170.63;4978015;28;102153;-88
2021/08/09 05:05:45;;;;;;;3.80;3.40;;;;;;;23.08;69.63;101160.69;4980859;28;101932;-86
2021/08/09 05:08:13;;;;;;;3.65;2.92;;;;;;;23.09;69.89;101165.09;4983954;28;102058;-86
2021/08/09 05:10:40;;;;;;;3.33;3.00;;;;;;;23.09;69.83;101167.06;4964346;28;102750;-86
2021/08/09 05:13:07;;;;;;;3.55;3.15;;;;;;;23.09;69.80;101165.09;4981566;28;101791;-86
2021/08/09 05:15:36;;;;;;;2.97;2.67;;;;;;;23.09;69.94;101156.75;4994964;28;101906;-86
2021/08/09 05:18:03;;;;;;;3.37;3.07;;;;;;;23.10;69.87;101160.34;5003494;28;102187;-86
2021/08/09 05:20:30;;;;;;;3.92;3.20;;;;;;;23.10;69.84;101161.16;5001897;28;102715;-86
2021/08/09 05:22:56;;;;;;;3.35;2.70;;;;;;;23.10;69.71;101161.16;5002717;28;101760;-86
2021/08/09 05:25:25;;;;;;;3.22;2.92;;;;;;;23.11;70.06;101164.72;4997606;28;101894;-86
2021/08/09 05:27:52;;;;;;;3.33;3.00;;;;;;;23.10;70.08;101161.16;4983125;28;102038;-86
2021/08/09 05:30:22;;;;;;;3.38;3.05;;;;;;;23.11;70.09;101162.75;4981651;28;102714;-86
2021/08/09 05:32:48;;;;;;;3.65;3.10;;;;;;;23.11;69.93;101148.88;4982357;28;102070;-86
2021/08/09 05:35:16;;;;;;;3.25;2.95;;;;;;;23.11;69.88;101151.66;4982330;28;102042;-86
2021/08/09 05:37:43;;;;;;;2.85;2.60;;;;;;;23.12;69.85;101152.50;4979036;28;102071;-86
2021/08/09 05:40:11;;;;;;;2.95;2.72;;;;;;;23.12;69.85;101153.28;4977102;28;102730;-86
2021/08/09 05:42:39;;;;;;;3.45;2.70;;;;;;;23.13;69.99;101162.44;4978562;28;102071;-87
2021/08/09 05:45:06;;;;;;;3.47;3.13;;;;;;;23.13;69.99;101154.91;4981600;28;102085;-86
2021/08/09 05:47:33;;;;;;;3.37;3.07;;;;;;;23.15;69.99;101155.38;4983242;28;102054;-87
2021/08/09 05:50:00;;;;;;;4.07;2.72;;;;;;;23.15;69.97;101152.59;4981559;28;103758;-86
2021/08/09 05:52:27;;;;;;;3.10;2.80;;;;;;;23.16;69.85;101148.66;4981999;28;101942;-86
2021/08/09 05:54:54;;;;;;;3.05;2.78;;;;;;;23.16;69.94;101145.91;4978903;28;102211;-87
2021/08/09 05:57:21;;;;;;;3.15;2.85;;;;;;;23.17;69.90;101132.81;4982689;28;101912;-87
2021/08/09 05:59:50;;;;;;;3.15;2.92;;;;;;;23.18;69.87;101134.44;4980935;28;102451;-87
2021/08/09 06:02:17;;;;;;;3.38;2.78;;;;;;;23.19;69.95;101139.66;4980665;28;101923;-87
2021/08/09 06:04:43;;;;;;;3.90;3.08;;;;;;;23.20;69.59;101134.91;4981479;28;101797;-87
2021/08/09 06:07:12;;;;;;;3.28;2.90;;;;;;;23.21;69.82;101126.22;4979415;28;102109;-87
2021/08/09 06:09:52;;;;;;;3.67;2.72;;;;;;;23.21;69.86;101129.00;4968919;28;102351;-87
2021/08/09 06:12:18;;;;;;;3.47;2.90;;;;;;;23.24;69.87;101139.41;4982138;28;101693;-87
2021/08/09 06:14:45;;;;;;;3.33;2.80;;;;;;;23.24;69.80;101150.50;4980267;28;101954;-88
2021/08/09 06:17:14;;;;;;;3.13;2.72;;;;;;;23.26;69.85;101145.44;4980625;28;102195;-89
2021/08/09 06:19:41;;;;;;;2.90;2.70;;;;;;;23.27;69.67;101144.28;4978070;28;102712;-88
2021/08/09 06:22:08;;;;;;;3.15;2.88;;;;;;;23.29;69.88;101137.56;4980284;28;102132;-89
2021/08/09 06:24:34;;;;;;;3.08;2.75;;;;;;;23.30;69.65;101125.28;4979209;28;102117;-88
2021/08/09 06:27:02;;;;;;;3.13;2.83;;;;;;;23.31;69.80;101133.28;4980634;28;102198;-88
2021/08/09 06:29:30;;;;;;;2.92;2.50;;;;;;;23.32;69.44;101128.53;4975761;28;102224;-87
2021/08/09 06:31:56;;;;;;;2.50;2.30;;;;;;;23.33;69.57;101133.72;4979285;28;102200;-88
2021/08/09 06:34:25;;;;;;;2.60;2.40;;;;;;;23.34;69.65;101138.13;4979768;28;102027;-89
2021/08/09 06:36:51;;;;;;;;;;;;;;;23.35;69.36;101131.41;4981473;28;102161;-90
2021/08/09 06:39:19;;;;;;;2.88;2.67;;;;;;;23.36;69.54;101138.59;4984374;28;102666;-89
2021/08/09 06:41:47;;;;;;;2.55;2.35;;;;;;;23.37;69.88;101139.38;4985268;28;101783;-90
2021/08/09 06:44:14;;;;;;;2.60;2.40;;;;;;;23.38;69.51;101132.69;4984918;28;101707;-90
2021/08/09 06:46:41;;;;;;;2.88;2.63;;;;;;;23.39;69.65;101139.88;4990083;28;102149;-90
2021/08/09 06:49:09;;;;;;;2.80;2.60;;;;;;;23.40;69.41;101139.50;4995460;28;102719;-90
2021/08/09 06:51:38;;;;;;;2.30;2.10;;;;;;;23.41;69.57;101138.38;4984669;28;102099;-90
2021/08/09 06:54:04;;;;;;;4.13;2.83;;;;;;;23.42;69.37;101139.19;4985211;28;101927;-90
2021/08/09 06:56:31;;;;;;;2.65;2.40;;;;;;;23.43;69.46;101140.78;4985863;28;102058;-90
2021/08/09 06:58:57;;;;;;;2.88;2.50;;;;;;;23.44;69.54;101136.84;4984398;28;102676;-88
2021/08/09 07:01:24;;;;;;;2.78;2.58;;;;;;;23.45;69.45;101144.03;4983511;28;102382;-89
2021/08/09 07:03:51;;;;;;;2.55;2.35;;;;;;;23.45;69.47;101138.47;4982595;28;101910;-88
2021/08/09 07:06:18;;;;;;;2.58;2.38;;;;;;;23.46;69.54;101140.09;4980459;28;102131;-89
2021/08/09 07:08:46;;;;;;;2.95;2.33;;;;;;;23.47;69.57;101136.16;4982815;28;102636;-88
2021/08/09 07:11:15;;;;;;;2.65;2.45;;;;;;;23.47;69.50;101136.97;4983532;28;101792;-89
2021/08/09 07:13:42;;;;;;;2.35;2.15;;;;;;;23.48;69.31;101129.47;4999898;28;102017;-89
2021/08/09 07:16:08;;;;;;;2.50;2.30;;;;;;;23.49;69.47;101136.63;5005341;28;102070;-89
2021/08/09 07:18:35;;;;;;;2.55;2.35;;;;;;;23.50;69.31;101129.91;4992032;28;102755;-89
2021/08/09 07:21:02;;;;;;;2.90;2.70;;;;;;;23.50;69.42;101141.81;4985721;28;102165;-89
2021/08/09 07:23:29;;;;;;;2.60;2.40;;;;;;;23.50;69.09;101135.47;4984954;28;101871;-89
2021/08/09 07:25:57;;;;;;;2.60;2.40;;;;;;;23.51;69.34;101137.06;4985737;28;102229;-89
2021/08/09 07:28:24;;;;;;;2.72;2.53;;;;;;;23.52;69.38;101135.13;4981915;28;102692;-89
2021/08/09 07:30:50;;;;;;;2.72;2.53;;;;;;;23.53;69.42;101128.41;4985553;28;102104;-89
2021/08/09 07:33:17;;;;;;;2.65;2.38;;;;;;;23.54;69.16;101130.00;4980785;28;102288;-89
2021/08/09 07:35:44;;;;;;;3.03;2.38;;;;;;;23.54;69.27;101141.94;4985616;28;102145;-89
2021/08/09 07:38:11;;;;;;;2.55;2.22;;;;;;;23.54;69.52;101127.22;4981501;28;102887;-89
2021/08/09 07:40:38;;;;;;;2.50;2.30;;;;;;;23.55;69.29;101137.19;4982531;28;101765;-90
2021/08/09 07:43:06;;;;;;;3.15;2.70;;;;;;;23.57;69.42;101130.13;4983243;28;101855;-89
2021/08/09 07:45:32;;;;;;;2.92;2.60;;;;;;;23.56;69.12;101122.16;4983206;28;102165;-90
2021/08/09 07:47:59;;;;;;;3.85;2.40;;;;;;;23.58;68.99;101136.47;4982179;28;103019;-90
2021/08/09 07:50:25;;;;;;;3.05;2.47;;;;;;;23.58;69.10;101140.06;4985067;28;102000;-90
2021/08/09 07:52:52;;;;;;;3.65;2.53;;;;;;;23.59;69.05;101138.94;4996381;28;101857;-90
2021/08/09 07:55:19;;;;;;;2.65;2.15;;;;;;;23.59;69.17;101136.16;4982530;28;102044;-90
2021/08/09 07:57:46;;;;;;;2.50;2.30;;;;;;;23.61;69.10;101142.16;4980332;28;102780;-90
2021/08/09 08:00:15;;;;;;;3.05;2.80;;;;;;;23.60;69.32;101132.22;4983912;28;102179;-90
2021/08/09 08:02:41;;;;;;;2.55;2.30;;;;;;;23.62;68.96;101129.91;4974965;28;101931;-90
2021/08/09 08:05:08;;;;;;;3.63;2.42;;;;;;;23.62;69.23;101134.63;4974584;28;102140;-90
2021/08/09 08:07:35;;;;;;;2.90;2.60;;;;;;;23.62;69.09;101132.69;4987769;28;102659;-90
2021/08/09 08:10:02;;;;;;;2.58;2.30;;;;;;;23.62;69.17;101127.13;4982853;28;102078;-90
2021/08/09 08:12:33;;;;;;;3.42;2.95;;;;;;;23.63;68.99;101125.16;4981393;28;102163;-90
2021/08/09 08:15:00;;;;;;;2.47;2.13;;;;;;;23.63;69.20;101127.94;4989468;28;102216;-90
2021/08/09 08:17:27;;;;;;;2.35;2.13;;;;;;;23.62;69.14;101129.91;4981576;28;102732;-90
2021/08/09 08:19:54;;;;;;;2.60;2.40;;;;;;;23.64;69.11;101122.00;4984820;28;102122;-90
2021/08/09 08:22:21;;;;;;;2.72;2.42;;;;;;;23.64;69.15;101119.22;4983313;28;101977;-90
2021/08/09 08:24:48;;;;;;;2.50;2.30;;;;;;;23.63;69.04;101112.06;4979652;28;102260;-90
2021/08/09 08:27:14;;;;;;;2.65;2.45;;;;;;;23.64;69.15;101105.34;4981567;28;102737;-90
2021/08/09 08:29:42;;;;;;;2.47;2.28;;;;;;;23.65;69.06;101114.47;4979740;28;102032;-90
2021/08/09 08:32:08;;;;;;;2.42;2.22;;;;;;;23.64;69.08;101108.13;4971128;28;102141;-90
2021/08/09 08:34:36;;;;;;;2.60;2.30;;;;;;;23.65;69.27;101115.28;4985024;28;102300;-90
2021/08/09 08:37:03;;;;;;;2.87;2.67;;;;;;;23.64;69.21;101113.66;4981268;28;102969;-90
2021/08/09 08:39:30;;;;;;;2.72;2.53;;;;;;;23.65;69.08;101120.84;4977272;28;102237;-89
2021/08/09 08:41:57;;;;;;;2.85;2.65;;;;;;;23.65;68.83;101118.06;4987149;28;102104;-89
2021/08/09 08:44:24;;;;;;;3.50;2.70;;;;;;;23.65;68.83;101103.38;4981093;28;102058;-90
2021/08/09 08:46:54;;;;;;;2.88;2.53;;;;;;;23.66;69.33;101119.69;4979640;28;102726;-90
2021/08/09 08:49:23;;;;;;;2.70;2.50;;;;;;;23.67;69.12;101123.31;4982329;28;102167;-89
2021/08/09 08:51:50;;;;;;;;;;;;;;;23.65;69.17;101118.06;4979477;28;101855;-89
2021/08/09 08:54:18;;;;;;;3.95;2.70;;;;;;;23.65;69.05;101118.06;4982423;28;102115;-89
2021/08/09 08:56:46;;;;;;;3.20;2.90;;;;;;;23.66;69.04;101110.56;4977149;28;102913;-89
2021/08/09 08:59:14;;;;;;;3.10;2.90;;;;;;;23.67;69.06;101106.66;4981218;28;102133;-89
2021/08/09 09:01:42;;;;;;;3.03;2.75;;;;;;;23.66;68.89;101108.59;4979089;28;102103;-89
2021/08/09 09:04:26;;;;;;;2.45;2.25;;;;;;;23.67;69.02;101101.91;4973281;28;102064;-89
2021/08/09 09:06:57;;;;;;;4.15;2.78;;;;;;;23.67;69.15;101106.66;4980145;28;102396;-89
2021/08/09 09:09:24;;;;;;;3.10;2.90;;;;;;;23.67;68.98;101109.44;4979945;28;102069;-89
2021/08/09 09:11:51;;;;;;;2.75;2.55;;;;;;;23.66;68.98;101105.81;4979606;28;102054;-89
2021/08/09 09:14:24;;;;;;;2.80;2.60;;;;;;;23.67;69.00;101101.91;4982950;28;102030;-89
2021/08/09 09:16:51;;;;;;;3.10;2.80;;;;;;;23.67;69.04;101101.91;4976007;28;102843;-90
2021/08/09 09:19:33;;;;;;;3.50;3.20;;;;;;;23.67;69.04;101096.34;4980579;28;102022;-89
2021/08/09 09:22:03;;;;;;;2.83;2.63;;;;;;;23.66;69.24;101100.25;4978642;28;102084;-89
2021/08/09 09:24:31;;;;;;;3.13;2.88;;;;;;;23.67;68.98;101095.53;4979771;28;102208;-89
2021/08/09 09:27:02;;;;;;;3.22;2.92;;;;;;;23.68;68.98;101102.69;4979465;28;102874;-89
2021/08/09 09:29:34;;;;;;;3.20;3.00;;;;;;;23.68;69.04;101100.72;4978744;28;102127;-89
2021/08/09 09:32:13;;;;;;;2.80;2.60;;;;;;;23.66;69.22;101094.69;4979320;28;102086;-89
2021/08/09 09:34:48;;;;;;;3.50;3.20;;;;;;;23.67;69.17;101098.31;4982418;28;102219;-90
2021/08/09 09:37:27;;;;;;;3.67;3.38;;;;;;;23.68;69.07;101097.13;4978432;28;102762;-89
2021/08/09 09:40:04;;;;;;;3.30;3.00;;;;;;;23.67;69.08;101095.53;4973758;28;102005;-89
2021/08/09 09:42:33;;;;;;;5.60;3.13;;;;;;;23.67;68.97;101101.91;4974930;28;101929;-89
2021/08/09 09:45:17;;;;;;;3.42;3.13;;;;;;;23.67;69.02;101090.78;4981009;28;102156;-90
2021/08/09 09:47:44;;;;;;;3.15;2.95;;;;;;;23.67;68.83;101103.88;4977653;28;102714;-89
2021/08/09 09:50:23;;;;;;;3.63;3.25;;;;;;;23.66;69.09;101111.38;4977746;28;102195;-89
2021/08/09 09:52:51;;;;;;;3.67;3.38;;;;;;;23.66;69.20;101116.94;4971272;28;102181;-87
2021/08/09 09:55:18;;;;;;;3.60;3.30;;;;;;;23.65;68.98;101115.28;4971733;28;101860;-87
2021/08/09 09:57:46;;;;;;;3.10;2.80;;;;;;;23.65;69.08;101115.28;4984799;28;102786;-87
2021/08/09 10:00:14;;;;;;;3.67;3.38;;;;;;;23.66;68.87;101116.13;4984291;28;102020;-87
2021/08/09 10:02:42;;;;;;;;;;;;;;;23.66;69.15;101121.69;4985907;28;101985;-87
2021/08/09 10:05:09;;;;;;;3.65;3.35;;;;;;;23.65;69.01;101125.59;4984593;28;102228;-87
2021/08/09 10:07:37;;;;;;;3.17;2.95;;;;;;;23.65;68.96;101131.94;4983022;28;102533;-87
2021/08/09 10:10:08;;;;;;;3.47;3.17;;;;;;;23.65;69.20;101129.19;4981845;28;102046;-87
2021/08/09 10:12:47;;;;;;;3.50;3.00;;;;;;;23.64;69.01;101124.78;4979572;28;102048;-87
2021/08/09 10:15:17;;;;;;;3.22;3.03;;;;;;;23.65;68.97;101123.63;4986530;28;101864;-87
2021/08/09 10:17:44;;;;;;;3.65;3.35;;;;;;;23.65;69.13;101123.63;4981364;28;102457;-87
2021/08/09 10:20:12;;;;;;;3.60;3.30;;;;;;;23.64;69.33;101113.66;4984934;28;101983;-87
2021/08/09 10:22:39;;;;;;;4.23;3.03;;;;;;;23.63;68.92;101123.19;4984808;28;102046;-87
2021/08/09 10:25:11;;;;;;;3.75;3.40;;;;;;;23.64;68.93;101126.75;4985141;28;102212;-87
2021/08/09 10:27:56;;;;;;;3.50;3.20;;;;;;;23.63;69.08;101128.72;4985962;28;102682;-87
2021/08/09 10:30:23;;;;;;;3.05;2.85;;;;;;;23.63;69.08;101134.28;4991659;28;102097;-87
2021/08/09 10:32:52;;;;;;;3.42;3.13;;;;;;;23.63;69.03;101139.03;4983630;28;101952;-87
2021/08/09 10:35:58;;;;;;;3.33;2.72;;;;;;;23.62;69.19;101142.97;4984697;28;102008;-87
2021/08/09 10:38:33;;;;;;;3.63;3.33;;;;;;;23.61;69.04;101144.94;4981046;28;102700;-87
2021/08/09 10:41:31;;;;;;;3.85;3.55;;;;;;;23.62;69.20;101143.78;4984302;28;102130;-87
2021/08/09 10:44:19;;;;;;;3.40;3.20;;;;;;;23.61;69.09;101142.16;4971177;28;102154;-87
2021/08/09 10:46:47;;;;;;;6.47;3.15;;;;;;;23.61;69.00;101131.03;4984858;28;102068;-87
2021/08/09 10:49:49;;;;;;;3.25;3.05;;;;;;;23.61;69.23;101124.69;4980536;28;102393;-87
2021/08/09 10:52:32;;;;;;;3.78;3.10;;;;;;;23.60;68.95;101123.88;4976816;28;102196;-90
2021/08/09 10:55:41;;;;;;;3.20;2.90;;;;;;;23.60;69.15;101123.88;4979391;28;102208;-87
2021/08/09 10:58:30;;;;;;;3.72;3.42;;;;;;;23.60;69.15;101118.31;4991007;28;102059;-87
2021/08/09 11:00:57;;;;;;;3.63;3.20;;;;;;;23.60;69.16;101112.75;4969164;28;102731;-87
2021/08/09 11:03:23;;;;;;;3.65;3.38;;;;;;;23.60;69.25;101112.75;4982714;28;101910;-87
2021/08/09 11:05:50;;;;;;;6.15;3.63;;;;;;;23.61;69.38;101116.34;4979841;28;102181;-87
2021/08/09 11:08:40;;;;;;;3.60;3.40;;;;;;;23.60;69.48;101118.31;4978640;28;101928;-87
2021/08/09 11:11:08;;;;;;;3.58;3.28;;;;;;;23.58;69.32;101115.06;4979027;28;102807;-87
2021/08/09 11:14:13;;;;;;;4.68;4.22;;;;;;;23.59;69.45;101113.94;4985238;28;102013;-87
2021/08/09 11:16:40;;;;;;;3.78;3.47;;;;;;;23.60;69.27;101117.50;4982458;28;101868;-87
2021/08/09 11:19:06;;;;;;;3.65;3.35;;;;;;;23.58;69.45;101109.50;4983499;28;102086;-87
2021/08/09 11:21:48;;;;;;;3.83;3.53;;;;;;;23.59;69.38;101119.47;4970520;28;102778;-87
2021/08/09 11:24:30;;;;;;;3.75;3.45;;;;;;;23.58;69.37;101106.72;4982059;28;101893;-87
2021/08/09 11:27:06;;;;;;;3.88;3.63;;;;;;;23.58;69.55;101106.72;4975707;28;101942;-87
2021/08/09 11:29:55;;;;;;;4.07;3.70;;;;;;;23.58;69.57;101115.06;4981032;28;102013;-87